Terminal Aerodrome Forecast
Issued by NWS

Home | Current Version | Previous Version | Text Only | Print | Product List | Glossary Off
Versions: 1 2 3 4 5 6 7 8 9 10 11 12 13 14 15 16 17 18 19 20 21 22 23 24 25 26 27 28

000
FTUS43 KLOT 082337
TAFDPA
TAF
KDPA 082337Z 0900/0924 28014G21KT P6SM -SN OVC025
     FM090300 28012G18KT P6SM -SN BKN030
     FM091400 28010KT P6SM SCT015 BKN025=

USA.gov is the U.S. government's official web portal to all federal, state and local government web resources and services.